Time;durP1;ratioP1;P1;durP2;ratioP2;P2;SDS_P1;SDS_P2;PMS_P1;PMS_P2;Temp;Humidity;BMP_temperature;BMP_pressure;BME280_temperature;BME280_humidity;BME280_pressure;Samples;Min_cycle;Max_cycle;Signal;HPM_P1;HPM_P2
2023/09/14 00:02:15;;;;;;;2.90;1.10;;;22.60;71.00;;;;;;5094346;28;20059;-68
2023/09/14 00:04:41;;;;;;;3.85;1.02;;;22.60;70.90;;;;;;5093248;28;20051;-68
2023/09/14 00:07:06;;;;;;;4.30;1.20;;;22.60;71.00;;;;;;5094186;28;20048;-67
2023/09/14 00:09:32;;;;;;;5.75;1.30;;;22.60;70.90;;;;;;5094809;28;20435;-67
2023/09/14 00:11:57;;;;;;;4.40;1.35;;;22.60;70.90;;;;;;5095439;28;20036;-67
2023/09/14 00:14:23;;;;;;;4.57;1.20;;;22.60;70.90;;;;;;5095090;28;20036;-67
2023/09/14 00:16:48;;;;;;;3.42;1.42;;;22.60;71.00;;;;;;5094422;28;20055;-67
2023/09/14 00:19:14;;;;;;;2.92;1.08;;;22.60;70.90;;;;;;5093736;28;20036;-67
2023/09/14 00:21:42;;;;;;;2.15;1.00;;;22.50;70.90;;;;;;5093476;28;20406;-67
2023/09/14 00:24:07;;;;;;;4.72;1.10;;;22.60;70.90;;;;;;5093186;28;20044;-67
2023/09/14 00:26:33;;;;;;;3.15;1.05;;;22.60;71.00;;;;;;5094192;28;20399;-67
2023/09/14 00:28:58;;;;;;;3.08;1.00;;;22.50;70.90;;;;;;5093552;28;20431;-67
2023/09/14 00:31:24;;;;;;;4.38;1.17;;;22.50;70.90;;;;;;5095134;28;20417;-67
2023/09/14 00:33:50;;;;;;;4.97;1.17;;;22.50;70.80;;;;;;5094889;28;20044;-67
2023/09/14 00:36:15;;;;;;;3.25;1.10;;;22.50;70.90;;;;;;5094068;28;20044;-67
2023/09/14 00:38:41;;;;;;;3.10;0.93;;;22.50;70.80;;;;;;5094614;28;20059;-67
2023/09/14 00:41:07;;;;;;;3.65;1.23;;;22.50;70.90;;;;;;5094914;28;20174;-67
2023/09/14 00:43:34;;;;;;;3.92;0.98;;;22.50;70.90;;;;;;5094188;28;20055;-67
2023/09/14 00:45:59;;;;;;;4.47;1.23;;;22.50;70.90;;;;;;5094547;28;20083;-67
2023/09/14 00:48:25;;;;;;;3.15;1.10;;;22.50;70.80;;;;;;5094114;28;20076;-67
2023/09/14 00:50:50;;;;;;;2.65;1.08;;;22.50;70.80;;;;;;5093864;28;20044;-67
2023/09/14 00:53:16;;;;;;;3.10;0.90;;;22.50;70.80;;;;;;5093504;28;20036;-67
2023/09/14 00:55:43;;;;;;;4.13;1.10;;;22.40;70.80;;;;;;5092720;28;20380;-67
2023/09/14 00:58:14;;;;;;;3.15;1.10;;;22.40;70.70;;;;;;5092844;28;20101;-67
2023/09/14 01:00:40;;;;;;;2.03;0.93;;;22.40;70.70;;;;;;5076392;28;20052;-67
2023/09/14 01:03:05;;;;;;;3.35;0.93;;;22.40;70.70;;;;;;5093335;28;20036;-67
2023/09/14 01:05:31;;;;;;;2.97;0.85;;;22.40;70.70;;;;;;5075737;28;20055;-67
2023/09/14 01:07:57;;;;;;;3.53;1.20;;;22.40;70.70;;;;;;5092759;28;20448;-67
2023/09/14 01:10:23;;;;;;;3.63;1.02;;;22.40;70.70;;;;;;5076495;28;20082;-67
2023/09/14 01:12:48;;;;;;;3.15;1.08;;;22.40;70.70;;;;;;5091910;28;20113;-67
2023/09/14 01:15:33;;;;;;;2.55;1.08;;;22.40;70.70;;;;;;5094046;28;20059;-67
2023/09/14 01:18:11;;;;;;;3.20;1.08;;;22.40;70.60;;;;;;5093587;28;20122;-67
2023/09/14 01:21:15;;;;;;;2.60;1.20;;;22.40;70.70;;;;;;5093065;28;20040;-67
2023/09/14 01:24:00;;;;;;;3.13;1.05;;;22.30;70.50;;;;;;5091891;28;20055;-67
2023/09/14 01:26:25;;;;;;;2.95;0.98;;;22.30;70.60;;;;;;5093523;28;20597;-67
2023/09/14 01:28:51;;;;;;;3.00;1.08;;;22.30;70.60;;;;;;5075626;28;20052;-67
2023/09/14 01:31:16;;;;;;;3.00;1.13;;;22.30;70.60;;;;;;5094147;28;20047;-67
2023/09/14 01:33:42;;;;;;;2.47;0.82;;;22.30;70.60;;;;;;5092894;28;20051;-67
2023/09/14 01:36:11;;;;;;;4.32;1.10;;;22.30;70.60;;;;;;5093029;28;20092;-67
2023/09/14 01:38:36;;;;;;;2.47;1.00;;;22.30;70.50;;;;;;5093458;28;20059;-67
2023/09/14 01:41:02;;;;;;;2.22;1.02;;;22.30;70.60;;;;;;5074702;28;20040;-67
2023/09/14 01:43:28;;;;;;;2.63;0.90;;;22.30;70.60;;;;;;5076012;28;20051;-67
2023/09/14 01:45:53;;;;;;;2.38;0.80;;;22.30;70.60;;;;;;5075007;28;20487;-67
2023/09/14 01:48:19;;;;;;;4.30;1.00;;;22.30;70.60;;;;;;5093105;28;20086;-67
2023/09/14 01:50:45;;;;;;;2.38;1.00;;;22.30;70.50;;;;;;5092252;28;20040;-67
2023/09/14 01:53:11;;;;;;;2.58;0.88;;;22.30;70.50;;;;;;5091813;28;20525;-67
2023/09/14 01:55:37;;;;;;;2.72;1.00;;;22.30;70.50;;;;;;5093320;28;20043;-67
2023/09/14 01:58:02;;;;;;;4.00;1.08;;;22.30;70.50;;;;;;5093675;28;20050;-67
2023/09/14 02:00:28;;;;;;;2.60;1.10;;;22.30;70.50;;;;;;5092559;28;20495;-67
2023/09/14 02:02:54;;;;;;;2.17;0.88;;;22.20;70.40;;;;;;5093243;28;20052;-67
2023/09/14 02:05:19;;;;;;;2.72;0.77;;;22.20;70.40;;;;;;5092225;28;20048;-67
2023/09/14 02:07:46;;;;;;;2.45;0.95;;;22.20;70.50;;;;;;5090663;28;20044;-67
2023/09/14 02:10:12;;;;;;;1.67;0.70;;;22.20;70.50;;;;;;5093398;28;20047;-67
2023/09/14 02:12:37;;;;;;;2.85;1.02;;;22.20;70.40;;;;;;5090866;28;20044;-67
2023/09/14 02:15:04;;;;;;;2.67;0.93;;;22.20;70.50;;;;;;5091366;28;20056;-67
2023/09/14 02:17:30;;;;;;;3.78;1.23;;;22.20;70.40;;;;;;5092103;28;20051;-68
2023/09/14 02:19:56;;;;;;;1.35;0.77;;;22.20;70.40;;;;;;5108664;28;20048;-68
2023/09/14 02:22:22;;;;;;;2.75;0.95;;;22.20;70.40;;;;;;5091004;28;20044;-68
2023/09/14 02:24:47;;;;;;;4.40;1.02;;;22.20;70.40;;;;;;5092668;28;20046;-67
2023/09/14 02:27:13;;;;;;;2.63;1.00;;;22.20;70.40;;;;;;5091622;28;20044;-68
2023/09/14 02:29:38;;;;;;;3.22;1.00;;;22.20;70.40;;;;;;5091984;28;20119;-67
2023/09/14 02:32:05;;;;;;;2.35;1.00;;;22.20;70.40;;;;;;5091552;28;20047;-67
2023/09/14 02:34:31;;;;;;;3.78;1.30;;;22.20;70.40;;;;;;5091465;28;20109;-67
2023/09/14 02:36:56;;;;;;;2.78;1.00;;;22.20;70.40;;;;;;5089986;28;20434;-68
2023/09/14 02:39:22;;;;;;;2.60;0.90;;;22.20;70.40;;;;;;5091695;28;20056;-67
2023/09/14 02:41:48;;;;;;;3.50;1.08;;;22.10;70.40;;;;;;5091292;28;20043;-67
2023/09/14 02:44:13;;;;;;;1.98;0.80;;;22.10;70.30;;;;;;5091108;28;20043;-68
2023/09/14 02:46:39;;;;;;;2.38;0.90;;;22.20;70.30;;;;;;5090157;28;20487;-68
2023/09/14 02:49:04;;;;;;;2.85;0.90;;;22.10;70.30;;;;;;5091015;28;20422;-67
2023/09/14 02:51:30;;;;;;;2.17;1.00;;;22.10;70.30;;;;;;5090776;28;20047;-68
2023/09/14 02:53:55;;;;;;;2.10;1.10;;;22.10;70.30;;;;;;5092422;28;20101;-67
2023/09/14 02:56:21;;;;;;;2.45;0.95;;;22.10;70.30;;;;;;5091934;28;20029;-68
2023/09/14 02:58:46;;;;;;;2.72;1.08;;;22.10;70.30;;;;;;5092607;28;20081;-67
2023/09/14 03:01:12;;;;;;;2.28;1.08;;;22.10;70.20;;;;;;5091229;28;20427;-68
2023/09/14 03:03:38;;;;;;;2.53;0.90;;;22.10;70.30;;;;;;5073659;28;20044;-68
2023/09/14 03:06:04;;;;;;;3.35;1.10;;;22.10;70.30;;;;;;5092859;28;20059;-67
2023/09/14 03:08:33;;;;;;;2.92;1.13;;;22.10;70.20;;;;;;5092911;28;20076;-67
2023/09/14 03:10:59;;;;;;;2.15;1.00;;;22.10;70.30;;;;;;5091627;28;20055;-67
2023/09/14 03:13:25;;;;;;;1.88;1.00;;;22.00;70.20;;;;;;5091197;28;20044;-67
2023/09/14 03:16:00;;;;;;;2.47;0.90;;;22.00;70.10;;;;;;5092254;28;20040;-67
2023/09/14 03:18:25;;;;;;;2.67;1.15;;;22.00;70.10;;;;;;5090765;28;20059;-67
2023/09/14 03:20:53;;;;;;;2.47;1.00;;;22.00;70.10;;;;;;5090873;28;20399;-68
2023/09/14 03:23:18;;;;;;;2.25;0.90;;;22.00;70.10;;;;;;5092592;28;20040;-67
2023/09/14 03:25:44;;;;;;;2.40;1.08;;;22.00;70.20;;;;;;5093934;28;20051;-68
2023/09/14 03:28:10;;;;;;;3.15;0.93;;;22.00;70.10;;;;;;5078451;28;20048;-67
2023/09/14 03:30:36;;;;;;;1.55;0.73;;;22.00;70.10;;;;;;5095884;28;20044;-68
2023/09/14 03:33:02;;;;;;;2.95;1.08;;;22.00;70.10;;;;;;5094268;28;20048;-68
2023/09/14 03:35:28;;;;;;;2.20;1.08;;;22.00;70.10;;;;;;5094939;28;20392;-67
2023/09/14 03:37:53;;;;;;;2.55;0.77;;;22.00;70.10;;;;;;5094623;28;20527;-67
2023/09/14 03:40:19;;;;;;;2.30;1.10;;;22.00;70.10;;;;;;5077247;28;20048;-67
2023/09/14 03:42:44;;;;;;;2.67;1.02;;;22.00;70.10;;;;;;5094859;28;20036;-67
2023/09/14 03:45:10;;;;;;;2.67;1.00;;;22.00;70.10;;;;;;5095986;28;20403;-67
2023/09/14 03:47:36;;;;;;;4.03;1.00;;;22.00;70.10;;;;;;5094366;28;20105;-68
2023/09/14 03:50:02;;;;;;;2.78;1.00;;;22.00;70.10;;;;;;5094368;28;20519;-68
2023/09/14 03:52:27;;;;;;;2.15;0.90;;;22.00;70.10;;;;;;5094827;28;20460;-68
2023/09/14 03:54:53;;;;;;;3.10;1.10;;;21.90;70.00;;;;;;5094550;28;20059;-67
2023/09/14 03:57:19;;;;;;;1.98;0.82;;;21.90;70.00;;;;;;5095875;28;20075;-67
2023/09/14 03:59:46;;;;;;;2.08;1.08;;;21.90;70.00;;;;;;5094751;28;20070;-68
2023/09/14 04:02:12;;;;;;;3.67;1.17;;;21.90;70.00;;;;;;5077019;28;20119;-67
2023/09/14 04:04:43;;;;;;;2.97;1.00;;;21.90;70.00;;;;;;5094816;28;20123;-67
2023/09/14 04:07:09;;;;;;;2.80;1.00;;;21.90;69.90;;;;;;5093195;28;20097;-68
2023/09/14 04:09:35;;;;;;;2.75;1.00;;;21.90;70.00;;;;;;5093733;28;20044;-67
2023/09/14 04:12:00;;;;;;;3.15;1.30;;;21.90;69.90;;;;;;5094004;28;20096;-67
2023/09/14 04:14:26;;;;;;;2.08;0.80;;;21.90;70.00;;;;;;5093222;28;20044;-67
2023/09/14 04:16:56;;;;;;;2.72;0.93;;;21.90;70.00;;;;;;5095430;28;20085;-67
2023/09/14 04:19:25;;;;;;;2.20;1.02;;;21.90;70.00;;;;;;5093873;28;20040;-67
2023/09/14 04:21:51;;;;;;;2.65;1.02;;;21.90;70.00;;;;;;5092796;28;20044;-67
2023/09/14 04:24:16;;;;;;;3.83;1.30;;;21.90;70.00;;;;;;5094111;28;20158;-67
2023/09/14 04:26:42;;;;;;;3.15;1.15;;;21.90;70.00;;;;;;5093470;28;20036;-67
2023/09/14 04:29:07;;;;;;;2.13;0.90;;;21.90;70.00;;;;;;5094604;28;20118;-67
2023/09/14 04:31:34;;;;;;;2.85;1.10;;;21.90;70.00;;;;;;5094396;28;20052;-66
2023/09/14 04:34:00;;;;;;;2.78;1.10;;;21.90;70.00;;;;;;5093914;28;20058;-67
2023/09/14 04:36:25;;;;;;;2.28;1.02;;;21.90;69.90;;;;;;5091818;28;20040;-68
2023/09/14 04:38:51;;;;;;;2.67;1.00;;;21.90;69.90;;;;;;5093481;28;20135;-67
2023/09/14 04:41:16;;;;;;;1.80;0.80;;;21.80;69.80;;;;;;5094878;28;20411;-67
2023/09/14 04:43:42;;;;;;;2.50;1.05;;;21.80;69.90;;;;;;5093018;28;20056;-67
2023/09/14 04:46:07;;;;;;;3.00;1.23;;;21.80;69.80;;;;;;5093657;28;20127;-67
2023/09/14 04:48:33;;;;;;;2.33;1.10;;;21.80;69.90;;;;;;5095138;28;20052;-67
2023/09/14 04:50:59;;;;;;;2.80;1.02;;;21.80;69.90;;;;;;5094012;28;20040;-67
2023/09/14 04:53:25;;;;;;;1.90;1.00;;;21.80;69.80;;;;;;5094019;28;20093;-67
2023/09/14 04:55:50;;;;;;;3.03;1.08;;;21.80;69.80;;;;;;5093883;28;20040;-67
2023/09/14 04:58:16;;;;;;;2.55;1.05;;;21.80;69.80;;;;;;5094858;28;20090;-67
2023/09/14 05:00:42;;;;;;;2.33;0.77;;;21.80;69.80;;;;;;5092943;28;20043;-67
2023/09/14 05:03:07;;;;;;;3.15;1.40;;;21.80;69.80;;;;;;5093744;28;20048;-67
2023/09/14 05:05:33;;;;;;;2.85;1.08;;;21.80;69.80;;;;;;5092830;28;20044;-67
2023/09/14 05:07:59;;;;;;;2.88;1.10;;;21.80;69.80;;;;;;5093555;28;20050;-68
2023/09/14 05:10:27;;;;;;;3.08;1.00;;;21.80;69.80;;;;;;5093698;28;20057;-67
2023/09/14 05:12:53;;;;;;;3.72;1.40;;;21.80;69.80;;;;;;5075804;28;20044;-67
2023/09/14 05:15:19;;;;;;;2.60;1.00;;;21.80;69.80;;;;;;5094551;28;20040;-67
2023/09/14 05:17:44;;;;;;;2.05;1.05;;;21.80;69.80;;;;;;5093359;28;20051;-67
2023/09/14 05:20:11;;;;;;;4.10;1.20;;;21.70;69.80;;;;;;5093065;28;20040;-67
2023/09/14 05:22:38;;;;;;;2.42;1.00;;;21.80;69.80;;;;;;5092526;28;20395;-67
2023/09/14 05:25:04;;;;;;;2.45;1.10;;;21.80;69.80;;;;;;5092190;28;20062;-68
2023/09/14 05:27:38;;;;;;;4.30;1.30;;;21.70;69.70;;;;;;5094359;28;20055;-68
2023/09/14 05:30:09;;;;;;;3.33;1.45;;;21.70;69.70;;;;;;5093944;28;20039;-68
2023/09/14 05:32:39;;;;;;;2.33;0.95;;;21.70;69.70;;;;;;5092043;28;20082;-67
2023/09/14 05:35:06;;;;;;;2.10;0.90;;;21.70;69.80;;;;;;5093764;28;20036;-68
2023/09/14 05:37:44;;;;;;;2.25;1.10;;;21.70;69.80;;;;;;5092899;28;20111;-67
2023/09/14 05:40:12;;;;;;;3.63;1.20;;;21.70;69.70;;;;;;5091763;28;20426;-69
2023/09/14 05:42:41;;;;;;;2.42;1.13;;;21.70;69.70;;;;;;5092469;28;20036;-69
2023/09/14 05:45:08;;;;;;;3.22;1.15;;;21.70;69.70;;;;;;5091583;28;20496;-67
2023/09/14 05:47:34;;;;;;;2.20;1.00;;;21.70;69.70;;;;;;5092753;28;20495;-69
2023/09/14 05:49:59;;;;;;;3.10;1.20;;;21.70;69.80;;;;;;5091964;28;20054;-69
2023/09/14 05:52:25;;;;;;;2.55;0.88;;;21.70;69.70;;;;;;5091565;28;20037;-66
2023/09/14 05:54:51;;;;;;;2.72;1.00;;;21.60;69.70;;;;;;5091726;28;20544;-66
2023/09/14 05:57:16;;;;;;;2.63;1.10;;;21.70;69.70;;;;;;5092417;28;20040;-66
2023/09/14 05:59:42;;;;;;;3.30;1.40;;;21.60;69.70;;;;;;5092039;28;20040;-69
2023/09/14 06:02:08;;;;;;;4.45;1.23;;;21.60;69.70;;;;;;5092549;28;20575;-68
2023/09/14 06:04:34;;;;;;;3.47;1.27;;;21.60;69.70;;;;;;5074586;28;20044;-67
2023/09/14 06:06:59;;;;;;;3.78;1.30;;;21.60;69.60;;;;;;5091509;28;20092;-68
2023/09/14 06:09:27;;;;;;;3.40;1.30;;;21.60;69.70;;;;;;5092085;28;20040;-68
2023/09/14 06:11:53;;;;;;;2.37;1.30;;;21.60;69.70;;;;;;5091820;28;20048;-69
2023/09/14 06:14:19;;;;;;;2.53;1.00;;;21.60;69.70;;;;;;5090883;28;20673;-66
2023/09/14 06:16:44;;;;;;;3.05;1.15;;;21.60;69.70;;;;;;5091894;28;20508;-66
2023/09/14 06:19:10;;;;;;;4.43;1.48;;;21.60;69.70;;;;;;5091876;28;20479;-67
2023/09/14 06:21:35;;;;;;;3.03;1.20;;;21.70;69.70;;;;;;5092009;28;20036;-66
2023/09/14 06:24:01;;;;;;;2.70;1.23;;;21.60;69.70;;;;;;5092236;28;20044;-67
2023/09/14 06:26:28;;;;;;;3.00;1.10;;;21.60;69.70;;;;;;5090533;28;20120;-67
2023/09/14 06:28:53;;;;;;;2.88;1.40;;;21.60;69.70;;;;;;5091125;28;20048;-67
2023/09/14 06:31:19;;;;;;;4.32;1.40;;;21.60;69.70;;;;;;5091615;28;20127;-66
2023/09/14 06:33:45;;;;;;;2.85;1.30;;;21.60;69.70;;;;;;5091614;28;20090;-66
2023/09/14 06:36:10;;;;;;;4.28;1.67;;;21.60;69.80;;;;;;5092150;28;20055;-68
2023/09/14 06:38:36;;;;;;;4.00;1.15;;;21.60;69.80;;;;;;5092217;28;20052;-66
2023/09/14 06:41:01;;;;;;;4.70;1.35;;;21.60;69.80;;;;;;5092896;28;20483;-67
2023/09/14 06:43:27;;;;;;;3.17;1.38;;;21.60;69.80;;;;;;5090877;28;20036;-66
2023/09/14 06:45:53;;;;;;;5.53;1.77;;;21.60;69.70;;;;;;5090558;28;20036;-66
2023/09/14 06:48:18;;;;;;;4.93;1.77;;;21.60;69.70;;;;;;5091351;28;20051;-66
2023/09/14 06:50:44;;;;;;;5.20;1.38;;;21.60;69.70;;;;;;5090353;28;20097;-66
2023/09/14 06:53:09;;;;;;;5.78;1.40;;;21.70;69.80;;;;;;5091375;28;20135;-66
2023/09/14 06:55:39;;;;;;;5.70;1.52;;;21.70;69.90;;;;;;5090799;28;20058;-66
2023/09/14 06:58:04;;;;;;;4.65;1.20;;;21.70;69.90;;;;;;5092917;28;20498;-68
2023/09/14 07:00:30;;;;;;;6.25;1.85;;;21.70;70.00;;;;;;5099032;28;20078;-66
2023/09/14 07:02:56;;;;;;;4.30;1.42;;;21.70;70.00;;;;;;5097845;28;20044;-65
2023/09/14 07:05:22;;;;;;;4.15;1.35;;;21.70;70.10;;;;;;5099381;28;20040;-67
2023/09/14 07:07:48;;;;;;;3.92;1.55;;;21.70;70.10;;;;;;5096443;28;20051;-67
2023/09/14 07:10:13;;;;;;;3.90;1.40;;;21.70;70.20;;;;;;5096938;28;20052;-67
2023/09/14 07:12:39;;;;;;;5.10;1.77;;;21.70;70.10;;;;;;5097657;28;20085;-70
2023/09/14 07:15:05;;;;;;;6.05;1.42;;;21.80;70.20;;;;;;5097694;28;20052;-69
2023/09/14 07:17:31;;;;;;;4.60;1.65;;;21.80;70.20;;;;;;5097301;28;20040;-71
2023/09/14 07:19:57;;;;;;;6.00;1.80;;;21.80;70.30;;;;;;5098829;28;20047;-69
2023/09/14 07:22:22;;;;;;;3.90;1.50;;;21.80;70.40;;;;;;5098282;28;20037;-70
2023/09/14 07:24:48;;;;;;;6.82;1.60;;;21.80;70.40;;;;;;5096768;28;20036;-72
2023/09/14 07:27:14;;;;;;;5.13;1.55;;;21.80;70.50;;;;;;5099402;28;20040;-72
2023/09/14 07:29:40;;;;;;;6.65;1.50;;;21.80;70.50;;;;;;5097757;28;20047;-69
2023/09/14 07:32:05;;;;;;;6.72;1.88;;;21.90;70.60;;;;;;5098406;28;20388;-71
2023/09/14 07:34:31;;;;;;;5.45;1.70;;;21.90;70.60;;;;;;5097671;28;20047;-67
2023/09/14 07:36:56;;;;;;;5.60;1.58;;;21.90;70.60;;;;;;5098856;28;20082;-67
2023/09/14 07:39:22;;;;;;;5.80;1.60;;;21.90;70.60;;;;;;5086923;28;20040;-77
2023/09/14 07:41:48;;;;;;;3.88;1.40;;;21.90;70.60;;;;;;5077303;28;20431;-73
2023/09/14 07:44:13;;;;;;;6.40;1.60;;;21.90;70.60;;;;;;5078349;28;20051;-74
2023/09/14 07:46:42;;;;;;;6.35;1.63;;;21.90;70.50;;;;;;5076236;28;20047;-68
2023/09/14 07:49:08;;;;;;;6.85;1.60;;;21.90;70.50;;;;;;5088398;28;20475;-68
2023/09/14 07:51:34;;;;;;;5.68;1.80;;;21.90;70.40;;;;;;5094567;28;20480;-69
2023/09/14 07:54:00;;;;;;;4.03;1.30;;;22.00;70.60;;;;;;5096814;28;20105;-71
2023/09/14 07:56:26;;;;;;;6.22;1.77;;;22.00;70.70;;;;;;5099036;28;20042;-68
2023/09/14 07:58:53;;;;;;;5.60;1.42;;;22.00;70.80;;;;;;5096710;28;20040;-68
2023/09/14 08:01:19;;;;;;;5.25;1.48;;;22.00;70.80;;;;;;5096408;28;20044;-69
2023/09/14 08:03:45;;;;;;;5.25;1.67;;;22.00;70.90;;;;;;5078172;28;20047;-68
2023/09/14 08:06:10;;;;;;;7.45;1.63;;;22.00;70.90;;;;;;5092289;28;20048;-69
2023/09/14 08:08:36;;;;;;;6.05;1.40;;;22.10;71.00;;;;;;5097504;28;20075;-69
2023/09/14 08:11:02;;;;;;;4.22;1.55;;;22.10;71.00;;;;;;5095359;28;20040;-67
2023/09/14 08:13:27;;;;;;;4.35;1.42;;;22.10;71.00;;;;;;5094964;28;20047;-67
2023/09/14 08:15:53;;;;;;;4.05;1.55;;;22.20;71.10;;;;;;5094883;28;20894;-66
2023/09/14 08:18:19;;;;;;;5.35;1.58;;;22.20;71.10;;;;;;5094324;28;20051;-69
2023/09/14 08:20:46;;;;;;;5.93;1.80;;;22.20;71.10;;;;;;5093895;28;20488;-68
2023/09/14 08:23:12;;;;;;;4.22;1.80;;;22.20;71.10;;;;;;5094518;28;20123;-68
2023/09/14 08:25:43;;;;;;;4.43;1.70;;;22.20;71.10;;;;;;5094995;28;20036;-66
2023/09/14 08:28:10;;;;;;;4.30;1.40;;;22.20;71.10;;;;;;5092326;28;20048;-66
2023/09/14 08:30:37;;;;;;;6.68;1.50;;;22.30;71.20;;;;;;5094764;28;20040;-67
2023/09/14 08:33:03;;;;;;;4.20;1.40;;;22.30;71.20;;;;;;5092410;28;20449;-66
2023/09/14 08:35:31;;;;;;;3.67;1.35;;;22.30;71.10;;;;;;5079695;28;20071;-67
2023/09/14 08:37:57;;;;;;;8.00;1.80;;;22.30;71.10;;;;;;5093803;28;20060;-66
2023/09/14 08:40:23;;;;;;;4.85;1.95;;;22.30;71.10;;;;;;5089346;28;20131;-66
2023/09/14 08:42:53;;;;;;;6.07;1.52;;;22.30;71.10;;;;;;5092317;28;20044;-65
2023/09/14 08:45:29;;;;;;;4.18;1.58;;;22.30;71.20;;;;;;5094429;28;20101;-66
2023/09/14 08:47:55;;;;;;;5.18;1.60;;;22.40;71.20;;;;;;5094074;28;20377;-66
2023/09/14 08:50:26;;;;;;;5.05;1.50;;;22.40;71.10;;;;;;5089830;28;20667;-66
2023/09/14 08:52:52;;;;;;;5.63;1.35;;;22.40;71.10;;;;;;5092664;28;20055;-67
2023/09/14 08:55:21;;;;;;;4.45;1.60;;;22.40;71.10;;;;;;5092077;28;20040;-66
2023/09/14 08:57:46;;;;;;;5.70;1.30;;;22.40;71.10;;;;;;5093921;28;20127;-66
2023/09/14 09:00:16;;;;;;;4.75;1.42;;;22.50;71.10;;;;;;5092210;28;20464;-66
2023/09/14 09:02:46;;;;;;;3.22;1.33;;;22.50;71.10;;;;;;5093912;28;20086;-66
2023/09/14 09:05:12;;;;;;;4.38;1.38;;;22.50;71.10;;;;;;5092831;28;20521;-66
2023/09/14 09:07:41;;;;;;;5.25;1.50;;;22.50;71.10;;;;;;5093273;28;20063;-66
2023/09/14 09:10:27;;;;;;;2.80;1.05;;;22.50;71.10;;;;;;5093010;28;20066;-67
2023/09/14 09:13:00;;;;;;;3.92;1.30;;;22.50;71.10;;;;;;5092746;28;20054;-66
2023/09/14 09:15:26;;;;;;;5.30;1.50;;;22.50;71.00;;;;;;5093304;28;20400;-65
2023/09/14 09:18:03;;;;;;;6.30;1.30;;;22.50;71.00;;;;;;5080358;28;20039;-66
2023/09/14 09:20:29;;;;;;;4.10;1.25;;;22.50;71.10;;;;;;5088873;28;20082;-68
2023/09/14 09:23:01;;;;;;;4.70;1.70;;;22.60;71.20;;;;;;5079588;28;20040;-68
2023/09/14 09:25:29;;;;;;;7.53;1.73;;;22.60;71.10;;;;;;5089148;28;20120;-68
2023/09/14 09:27:59;;;;;;;5.07;1.30;;;22.60;71.20;;;;;;5055612;28;20037;-67
2023/09/14 09:30:35;;;;;;;3.38;1.20;;;22.60;71.20;;;;;;5070283;28;20566;-69
2023/09/14 09:33:01;;;;;;;2.97;1.25;;;22.60;71.20;;;;;;5072270;28;20119;-68
2023/09/14 09:35:28;;;;;;;5.95;1.38;;;22.60;71.10;;;;;;5073812;28;20127;-68
2023/09/14 09:37:55;;;;;;;6.63;1.55;;;22.60;71.50;;;;;;5072576;28;20056;-75
2023/09/14 09:40:25;;;;;;;5.25;1.40;;;22.60;70.90;;;;;;5072949;28;20458;-68
2023/09/14 09:42:52;;;;;;;8.43;1.80;;;22.60;70.80;;;;;;5072155;28;20048;-69
2023/09/14 09:45:24;;;;;;;5.82;1.40;;;22.70;71.10;;;;;;5072740;28;20594;-68
2023/09/14 09:47:49;;;;;;;4.80;1.25;;;22.70;71.20;;;;;;5072164;28;20132;-68
2023/09/14 09:50:15;;;;;;;6.43;1.60;;;22.70;71.20;;;;;;5072413;28;20115;-67
2023/09/14 09:52:42;;;;;;;5.65;1.40;;;22.70;71.10;;;;;;5072596;28;20045;-69
2023/09/14 09:55:15;;;;;;;3.83;1.50;;;22.70;71.10;;;;;;5073511;28;20040;-66
2023/09/14 09:57:48;;;;;;;6.55;1.30;;;22.70;71.10;;;;;;5071743;28;20485;-68
2023/09/14 10:00:14;;;;;;;6.10;1.48;;;22.70;71.10;;;;;;5055566;28;20056;-69
2023/09/14 10:02:41;;;;;;;4.10;1.20;;;22.70;71.20;;;;;;5089513;28;20036;-69
2023/09/14 10:05:07;;;;;;;5.55;1.08;;;22.70;71.10;;;;;;5093676;28;20135;-69
2023/09/14 10:07:38;;;;;;;4.28;1.27;;;22.70;71.00;;;;;;5091406;28;20048;-70
2023/09/14 10:10:04;;;;;;;3.53;0.98;;;22.70;70.90;;;;;;5092098;28;20040;-69
2023/09/14 10:12:29;;;;;;;4.87;1.37;;;22.70;70.80;;;;;;5091440;28;20048;-69
2023/09/14 10:14:56;;;;;;;5.20;1.20;;;22.70;70.80;;;;;;5091941;28;20126;-69
2023/09/14 10:17:22;;;;;;;5.50;1.55;;;22.70;70.80;;;;;;5092338;28;20237;-69
2023/09/14 10:19:48;;;;;;;4.82;1.35;;;22.80;70.80;;;;;;5090752;28;20056;-69
2023/09/14 10:22:17;;;;;;;6.22;1.35;;;22.80;70.80;;;;;;5092559;28;20055;-69
2023/09/14 10:24:43;;;;;;;6.45;1.80;;;22.80;70.80;;;;;;5091782;28;20117;-69
2023/09/14 10:27:09;;;;;;;7.65;1.33;;;22.80;70.70;;;;;;5089037;28;20479;-69
2023/09/14 10:29:38;;;;;;;3.42;1.00;;;22.80;70.70;;;;;;5082696;28;20043;-68
2023/09/14 10:32:03;;;;;;;5.60;1.50;;;22.80;70.70;;;;;;5070463;28;20166;-69
2023/09/14 10:34:29;;;;;;;4.20;1.08;;;22.80;70.70;;;;;;5073256;28;20496;-68
2023/09/14 10:36:55;;;;;;;4.03;1.48;;;22.80;70.70;;;;;;5074222;28;20067;-66
2023/09/14 10:39:23;;;;;;;7.95;1.80;;;22.80;70.70;;;;;;5057859;28;20131;-67
2023/09/14 10:41:48;;;;;;;9.30;2.40;;;22.80;70.60;;;;;;5090583;28;20451;-67
2023/09/14 10:44:14;;;;;;;8.43;2.50;;;22.80;70.70;;;;;;5091526;28;20083;-67
2023/09/14 10:46:42;;;;;;;13.05;2.60;;;22.80;70.70;;;;;;5091195;28;20044;-67
2023/09/14 10:49:08;;;;;;;8.48;2.47;;;22.80;70.70;;;;;;5074446;28;20044;-69
2023/09/14 10:51:33;;;;;;;7.97;2.13;;;22.80;70.70;;;;;;5091254;28;20492;-66
2023/09/14 10:54:01;;;;;;;9.02;2.17;;;22.90;70.70;;;;;;5074633;28;20079;-66
2023/09/14 10:56:30;;;;;;;8.53;2.60;;;22.90;70.70;;;;;;5073792;28;20085;-65
2023/09/14 10:58:56;;;;;;;9.40;2.08;;;22.90;70.70;;;;;;5091249;28;20048;-66
2023/09/14 11:01:26;;;;;;;11.43;2.22;;;22.90;70.60;;;;;;5091264;28;20048;-66
2023/09/14 11:04:13;;;;;;;7.80;2.20;;;22.90;70.50;;;;;;5091513;28;20071;-65
2023/09/14 11:06:51;;;;;;;8.73;2.03;;;22.90;70.20;;;;;;5091025;28;20483;-67
2023/09/14 11:09:17;;;;;;;7.97;2.22;;;22.90;70.30;;;;;;5091174;28;20113;-66
2023/09/14 11:11:44;;;;;;;7.38;1.73;;;22.90;70.20;;;;;;5090961;28;20046;-66
2023/09/14 11:14:11;;;;;;;8.52;1.83;;;22.90;70.10;;;;;;5092463;28;20127;-66
2023/09/14 11:16:57;;;;;;;8.68;2.17;;;22.90;70.00;;;;;;5091333;28;20040;-66
2023/09/14 11:19:37;;;;;;;6.28;1.80;;;22.90;69.80;;;;;;5091507;28;20083;-66
2023/09/14 11:22:03;;;;;;;11.30;2.17;;;22.90;69.80;;;;;;5092649;28;20040;-66
2023/09/14 11:24:36;;;;;;;5.72;1.83;;;22.90;69.90;;;;;;5090406;28;20050;-66
2023/09/14 11:27:01;;;;;;;5.25;1.73;;;22.90;69.80;;;;;;5091689;28;20492;-66
2023/09/14 11:29:27;;;;;;;9.95;1.95;;;22.90;70.40;;;;;;5090914;28;20126;-66
2023/09/14 11:31:56;;;;;;;7.78;2.00;;;22.90;69.70;;;;;;5056682;28;20044;-66
2023/09/14 11:34:22;;;;;;;9.60;2.03;;;23.00;69.80;;;;;;5092510;28;20067;-66
2023/09/14 11:36:48;;;;;;;7.15;2.33;;;22.90;69.70;;;;;;5073656;28;20392;-66
2023/09/14 11:39:14;;;;;;;6.47;2.00;;;22.90;69.70;;;;;;5074409;28;20278;-66
2023/09/14 11:41:48;;;;;;;6.93;2.17;;;22.90;69.70;;;;;;5073447;28;20082;-66
2023/09/14 11:44:14;;;;;;;6.90;1.92;;;23.00;69.70;;;;;;5091297;28;20074;-66
2023/09/14 11:46:40;;;;;;;6.55;1.83;;;22.90;69.70;;;;;;5095646;28;20071;-66
2023/09/14 11:49:06;;;;;;;7.85;1.92;;;23.00;69.70;;;;;;5095121;28;20098;-66
2023/09/14 11:51:31;;;;;;;7.88;1.88;;;22.90;69.70;;;;;;5094307;28;20044;-65
2023/09/14 11:53:59;;;;;;;8.73;1.90;;;22.90;69.60;;;;;;5094500;28;20040;-66
2023/09/14 11:56:31;;;;;;;5.57;1.67;;;22.90;69.60;;;;;;5094239;28;20120;-66
2023/09/14 11:59:00;;;;;;;5.80;1.60;;;22.90;69.60;;;;;;5093524;28;20039;-66
2023/09/14 12:01:26;;;;;;;3.60;1.50;;;22.90;69.60;;;;;;5111726;28;20098;-66
2023/09/14 12:03:52;;;;;;;5.25;1.58;;;22.90;69.70;;;;;;5077587;28;20068;-66
2023/09/14 12:06:17;;;;;;;4.32;1.67;;;22.90;69.50;;;;;;5077010;28;20059;-66
2023/09/14 12:08:49;;;;;;;6.53;1.90;;;22.90;69.50;;;;;;5077126;28;20117;-66
2023/09/14 12:11:15;;;;;;;8.10;2.13;;;22.90;69.50;;;;;;5094644;28;20051;-66
2023/09/14 12:13:56;;;;;;;5.55;1.35;;;22.90;69.50;;;;;;5093523;28;20048;-66
2023/09/14 12:16:27;;;;;;;5.55;1.88;;;22.90;69.50;;;;;;5095631;28;20044;-66
2023/09/14 12:18:53;;;;;;;7.25;1.70;;;22.90;69.50;;;;;;5093702;28;20096;-66
2023/09/14 12:21:19;;;;;;;6.75;1.70;;;22.90;69.50;;;;;;5093382;28;20044;-66
2023/09/14 12:23:47;;;;;;;5.45;1.40;;;22.90;69.50;;;;;;5093772;28;20059;-66
2023/09/14 12:26:14;;;;;;;7.32;1.80;;;22.90;69.50;;;;;;5094636;28;20048;-66
2023/09/14 12:28:44;;;;;;;5.55;1.52;;;22.90;69.50;;;;;;5077172;28;20116;-66
2023/09/14 12:31:10;;;;;;;5.75;1.80;;;22.90;69.50;;;;;;5095392;28;20055;-66
2023/09/14 12:33:37;;;;;;;6.00;1.67;;;22.90;69.50;;;;;;5093073;28;20067;-66
2023/09/14 12:36:03;;;;;;;4.78;1.77;;;22.90;70.10;;;;;;5077024;28;20036;-66
2023/09/14 12:38:32;;;;;;;3.83;1.40;;;22.90;69.50;;;;;;5093583;28;20060;-66
2023/09/14 12:40:57;;;;;;;4.82;1.38;;;22.90;69.50;;;;;;5093148;28;20044;-66
2023/09/14 12:43:24;;;;;;;5.05;1.60;;;22.90;69.50;;;;;;5077123;28;20372;-66
2023/09/14 12:45:50;;;;;;;5.35;1.30;;;22.90;69.50;;;;;;5093738;28;20042;-66